createdAt,value
2017-10-06T00:01:13.792Z,81.43
2017-10-06T00:03:43.547Z,82.65
2017-10-06T00:06:13.318Z,83.42
2017-10-06T00:08:43.154Z,82.71
2017-10-06T00:11:12.899Z,83.38
2017-10-06T00:13:42.645Z,82.86
2017-10-06T00:16:12.391Z,82.89
2017-10-06T00:18:42.126Z,82.76
2017-10-06T00:21:11.866Z,81.87
2017-10-06T00:23:41.627Z,83.17
2017-10-06T00:26:11.379Z,81.50
2017-10-06T00:28:41.161Z,82.27
2017-10-06T00:31:10.977Z,82.97
2017-10-06T00:33:40.697Z,82.72
2017-10-06T00:36:10.443Z,83.18
2017-10-06T00:38:40.191Z,84.07
2017-10-06T00:41:09.738Z,84.78
2017-10-06T00:43:39.364Z,84.13
2017-10-06T00:46:09.121Z,84.44
2017-10-06T00:48:38.853Z,84.91
2017-10-06T00:51:08.612Z,85.31
2017-10-06T00:53:38.007Z,85.30
2017-10-06T00:56:07.754Z,85.24
2017-10-06T00:58:37.182Z,86.07
2017-10-06T01:01:06.738Z,86.60
2017-10-06T01:03:36.493Z,87.43
2017-10-06T01:06:06.232Z,88.21
2017-10-06T01:08:35.964Z,87.66
2017-10-06T01:11:05.699Z,88.66
2017-10-06T01:13:35.457Z,87.41
2017-10-06T01:16:05.182Z,87.03
2017-10-06T01:18:34.920Z,86.92
2017-10-06T01:21:04.320Z,87.97
2017-10-06T01:23:33.724Z,87.70
2017-10-06T01:26:03.477Z,85.74
2017-10-06T01:28:32.855Z,84.19
2017-10-06T01:31:02.588Z,83.95
2017-10-06T01:33:32.330Z,82.62
2017-10-06T01:36:01.735Z,82.24
2017-10-06T01:38:31.482Z,80.96
2017-10-06T01:41:01.225Z,81.31
2017-10-06T01:43:30.962Z,80.81
2017-10-06T01:46:00.713Z,80.26
2017-10-06T01:48:30.458Z,80.34
2017-10-06T01:50:59.866Z,81.80
2017-10-06T01:53:29.595Z,81.53
2017-10-06T01:55:59.406Z,80.42
2017-10-06T01:58:29.148Z,81.04
2017-10-06T02:00:58.540Z,81.96
2017-10-06T02:03:28.292Z,81.69
2017-10-06T02:05:58.048Z,82.37
2017-10-06T02:08:27.779Z,82.32
2017-10-06T02:10:57.528Z,82.57
2017-10-06T02:13:27.281Z,82.50
2017-10-06T02:15:57.030Z,82.69
2017-10-06T02:18:26.778Z,83.52
2017-10-06T02:20:56.228Z,84.50
2017-10-06T02:23:25.768Z,85.03
2017-10-06T02:25:55.000Z,84.98
2017-10-06T02:28:24.560Z,85.43
2017-10-06T02:30:54.314Z,84.67
2017-10-06T02:33:24.074Z,84.80
2017-10-06T02:35:53.830Z,83.77
2017-10-06T02:38:23.573Z,84.57
2017-10-06T02:40:53.374Z,85.00
2017-10-06T02:43:23.151Z,84.51
2017-10-06T02:45:52.908Z,85.17
2017-10-06T02:48:22.667Z,85.13
2017-10-06T02:50:52.249Z,83.49
2017-10-06T02:53:22.684Z,83.65
2017-10-06T02:55:52.458Z,83.94
2017-10-06T02:58:22.204Z,83.75
2017-10-06T03:00:51.429Z,83.87
2017-10-06T03:03:20.994Z,83.12
2017-10-06T03:05:50.726Z,83.34
2017-10-06T03:08:20.478Z,82.57
2017-10-06T03:10:50.250Z,82.84
2017-10-06T03:13:20.066Z,82.25
2017-10-06T03:15:49.792Z,81.69
2017-10-06T03:18:19.662Z,81.43
2017-10-06T03:20:49.386Z,82.24
2017-10-06T03:23:19.190Z,82.80
2017-10-06T03:25:48.917Z,81.69
2017-10-06T03:28:18.675Z,82.00
2017-10-06T03:30:48.419Z,81.26
2017-10-06T03:33:18.174Z,81.50
2017-10-06T03:35:47.900Z,81.83
2017-10-06T03:38:17.745Z,81.94
2017-10-06T03:40:47.516Z,82.67
2017-10-06T03:43:18.210Z,83.48
2017-10-06T03:45:47.999Z,83.62
2017-10-06T03:48:17.828Z,83.12
2017-10-06T03:50:47.609Z,84.29
2017-10-06T03:53:17.366Z,84.46
2017-10-06T03:55:47.173Z,84.36
2017-10-06T03:58:16.937Z,85.70
2017-10-06T04:00:46.701Z,85.50
2017-10-06T04:03:16.470Z,85.88
2017-10-06T04:05:46.239Z,86.07
2017-10-06T04:08:16.040Z,86.23
2017-10-06T04:10:45.805Z,85.68
2017-10-06T04:13:15.600Z,86.31
2017-10-06T04:15:45.070Z,85.11
2017-10-06T04:18:15.210Z,85.69
2017-10-06T04:20:45.969Z,86.82
2017-10-06T04:23:15.798Z,87.29
2017-10-06T04:25:45.564Z,87.59
2017-10-06T04:28:15.296Z,87.33
2017-10-06T04:30:45.063Z,87.69
2017-10-06T04:33:14.796Z,86.01
2017-10-06T04:35:44.538Z,86.09
2017-10-06T04:38:14.404Z,84.70
2017-10-06T04:40:44.180Z,83.75
2017-10-06T04:43:13.973Z,85.25
2017-10-06T04:45:43.746Z,85.21
2017-10-06T04:48:13.529Z,85.76
2017-10-06T04:50:43.289Z,85.99
2017-10-06T04:53:13.683Z,87.32
2017-10-06T04:55:43.409Z,86.95
2017-10-06T04:58:13.419Z,88.07
2017-10-06T05:00:42.989Z,89.24
2017-10-06T05:03:12.738Z,90.08
2017-10-06T05:05:42.600Z,89.81
2017-10-06T05:08:12.424Z,90.55
2017-10-06T05:10:42.214Z,89.50
2017-10-06T05:13:11.968Z,89.05
2017-10-06T05:15:41.693Z,89.62
2017-10-06T05:18:11.457Z,88.62
2017-10-06T05:20:41.064Z,89.57
2017-10-06T05:23:10.871Z,90.08
2017-10-06T05:25:40.725Z,89.35
2017-10-06T05:28:10.450Z,89.22
2017-10-06T05:30:40.233Z,90.82
2017-10-06T05:33:09.770Z,89.97
2017-10-06T05:35:39.529Z,88.79
2017-10-06T05:38:09.322Z,88.46
2017-10-06T05:40:39.054Z,88.16
2017-10-06T05:43:08.797Z,87.38
2017-10-06T05:45:38.567Z,87.57
2017-10-06T05:48:09.242Z,87.35
2017-10-06T05:50:39.001Z,86.00
2017-10-06T05:53:08.758Z,84.22
2017-10-06T05:55:38.601Z,83.79
2017-10-06T05:58:08.389Z,83.64
2017-10-06T06:00:37.790Z,82.05
2017-10-06T06:03:07.376Z,83.06
2017-10-06T06:05:37.113Z,81.99
2017-10-06T06:08:06.882Z,81.16
2017-10-06T06:10:36.619Z,80.33
2017-10-06T06:13:06.377Z,79.60
2017-10-06T06:15:36.156Z,78.68
2017-10-06T06:18:05.959Z,77.24
2017-10-06T06:20:35.678Z,76.78
2017-10-06T06:23:05.434Z,77.33
2017-10-06T06:25:35.206Z,77.37
2017-10-06T06:28:04.959Z,77.55
2017-10-06T06:30:34.756Z,77.12
2017-10-06T06:33:04.516Z,76.03
2017-10-06T06:35:34.351Z,75.93
2017-10-06T06:38:04.126Z,73.77
2017-10-06T06:40:33.883Z,72.86
2017-10-06T06:43:03.671Z,71.76
2017-10-06T06:45:33.410Z,70.45
2017-10-06T06:48:03.157Z,68.19
2017-10-06T06:50:33.125Z,64.85
2017-10-06T06:53:02.850Z,62.46
2017-10-06T06:55:32.613Z,62.79
2017-10-06T06:58:02.352Z,63.77
2017-10-06T07:00:31.686Z,65.38
2017-10-06T07:03:01.764Z,65.50
2017-10-06T07:05:31.542Z,63.06
2017-10-06T07:08:01.301Z,60.66
2017-10-06T07:10:30.725Z,59.14
2017-10-06T07:13:00.307Z,60.05
2017-10-06T07:15:29.716Z,61.62
2017-10-06T07:17:59.473Z,63.62
2017-10-06T07:20:29.240Z,64.84
2017-10-06T07:22:58.819Z,64.25
2017-10-06T07:25:28.555Z,62.23
2017-10-06T07:27:58.299Z,56.13
2017-10-06T07:30:28.058Z,54.04
2017-10-06T07:32:57.538Z,53.43
2017-10-06T07:35:26.648Z,53.79
2017-10-06T07:37:55.979Z,52.65
2017-10-06T07:40:25.444Z,50.55
2017-10-06T07:42:54.918Z,49.93
2017-10-06T07:45:24.181Z,51.25
2017-10-06T07:47:53.475Z,49.54
2017-10-06T07:50:22.751Z,50.95
2017-10-06T07:52:52.214Z,49.85
2017-10-06T07:55:21.663Z,47.58
2017-10-06T07:57:51.122Z,45.78
2017-10-06T08:00:20.635Z,43.11
2017-10-06T08:02:49.939Z,41.27
2017-10-06T08:05:19.433Z,39.83
2017-10-06T08:07:48.916Z,40.38
2017-10-06T08:10:18.387Z,40.42
2017-10-06T08:12:47.855Z,38.57
2017-10-06T08:15:17.347Z,36.61
2017-10-06T08:17:46.807Z,37.53
2017-10-06T08:20:16.266Z,41.38
2017-10-06T08:22:45.733Z,40.31
2017-10-06T08:25:15.235Z,38.64
2017-10-06T08:27:44.790Z,38.92
2017-10-06T08:30:14.271Z,39.77
2017-10-06T08:32:43.739Z,37.15
2017-10-06T08:35:13.265Z,36.37
2017-10-06T08:37:42.733Z,37.90
2017-10-06T08:40:12.215Z,34.52
2017-10-06T08:42:41.553Z,34.05
2017-10-06T08:45:10.902Z,30.21
2017-10-06T08:47:40.358Z,29.08
2017-10-06T08:50:09.857Z,26.39
2017-10-06T08:52:39.331Z,25.56
2017-10-06T08:55:08.881Z,25.17
2017-10-06T08:57:38.468Z,25.19
2017-10-06T09:00:07.737Z,23.47
2017-10-06T09:02:37.199Z,23.60
2017-10-06T09:05:06.334Z,22.65
2017-10-06T09:07:39.703Z,21.34
2017-10-06T09:10:09.190Z,23.05
2017-10-06T09:12:38.656Z,27.36
2017-10-06T09:15:08.147Z,26.10
2017-10-06T09:17:37.705Z,25.19
2017-10-06T09:20:07.161Z,24.68
2017-10-06T09:22:36.659Z,26.34
2017-10-06T09:25:06.731Z,25.97
2017-10-06T09:27:36.202Z,30.12
2017-10-06T09:30:05.711Z,31.42
2017-10-06T09:32:35.191Z,29.67
2017-10-06T09:35:08.912Z,33.27
2017-10-06T09:37:38.382Z,31.52
2017-10-06T09:40:07.866Z,28.98
2017-10-06T09:42:37.322Z,27.86
2017-10-06T09:45:06.817Z,26.61
2017-10-06T09:47:36.090Z,24.75
2017-10-06T09:50:05.714Z,24.36
2017-10-06T09:52:35.226Z,25.53
2017-10-06T09:55:04.702Z,28.01
2017-10-06T09:57:34.196Z,31.93
2017-10-06T10:00:03.676Z,33.13
2017-10-06T10:02:33.088Z,33.76
2017-10-06T10:05:02.631Z,35.15
2017-10-06T10:07:32.171Z,36.42
2017-10-06T10:10:01.641Z,32.83
2017-10-06T10:12:31.164Z,30.85
2017-10-06T10:15:00.740Z,31.43
2017-10-06T10:17:30.193Z,34.07
2017-10-06T10:19:59.671Z,29.10
2017-10-06T10:22:29.242Z,27.07
2017-10-06T10:24:58.724Z,26.46
2017-10-06T10:27:28.320Z,25.27
2017-10-06T10:29:57.808Z,27.80
2017-10-06T10:32:27.353Z,29.18
2017-10-06T10:34:57.214Z,25.25
2017-10-06T10:37:26.966Z,23.46
2017-10-06T10:39:57.424Z,22.58
2017-10-06T10:42:26.938Z,20.61
2017-10-06T10:44:56.455Z,18.81
2017-10-06T10:47:25.804Z,20.19
2017-10-06T10:49:55.353Z,18.52
2017-10-06T10:52:24.877Z,23.89
2017-10-06T10:54:54.414Z,23.79
2017-10-06T10:57:23.913Z,26.08
2017-10-06T10:59:53.012Z,27.52
2017-10-06T11:02:23.033Z,26.92
2017-10-06T11:04:52.542Z,23.20
2017-10-06T11:07:22.283Z,21.91
2017-10-06T11:09:51.889Z,22.62
2017-10-06T11:12:21.115Z,24.88
2017-10-06T11:14:50.627Z,26.89
2017-10-06T11:17:20.851Z,31.33
2017-10-06T11:19:50.326Z,33.57
2017-10-06T11:22:19.616Z,35.57
2017-10-06T11:24:52.559Z,36.30
2017-10-06T11:27:21.757Z,39.22
2017-10-06T11:29:51.236Z,40.04
2017-10-06T11:32:20.383Z,31.37
2017-10-06T11:34:49.750Z,24.90
2017-10-06T11:37:18.948Z,21.72
2017-10-06T11:39:48.472Z,18.71
2017-10-06T11:42:17.700Z,17.19
2017-10-06T11:44:47.056Z,17.46
2017-10-06T11:47:16.614Z,20.62
2017-10-06T11:49:45.849Z,22.63
2017-10-06T11:52:14.962Z,26.28
2017-10-06T11:54:44.583Z,28.75
2017-10-06T11:57:13.711Z,31.95
2017-10-06T11:59:43.721Z,33.73
2017-10-06T12:02:12.931Z,33.02
2017-10-06T12:04:43.221Z,33.11
2017-10-06T12:07:12.728Z,34.23
2017-10-06T12:09:41.917Z,35.85
2017-10-06T12:12:11.051Z,36.77
2017-10-06T12:14:40.622Z,37.39
2017-10-06T12:17:09.813Z,38.61
2017-10-06T12:19:39.741Z,39.54
2017-10-06T12:22:09.089Z,39.70
2017-10-06T12:24:38.202Z,38.58
2017-10-06T12:27:07.435Z,38.18
2017-10-06T12:29:37.658Z,39.52
2017-10-06T12:32:07.742Z,41.11
2017-10-06T12:34:37.066Z,43.86
2017-10-06T12:37:06.435Z,44.69
2017-10-06T12:39:35.713Z,45.25
2017-10-06T12:42:05.601Z,46.25
2017-10-06T12:44:34.835Z,47.28
2017-10-06T12:47:04.166Z,46.92
2017-10-06T12:49:33.423Z,46.25
2017-10-06T12:52:03.018Z,45.19
2017-10-06T12:54:32.998Z,43.90
2017-10-06T12:57:07.125Z,39.79
2017-10-06T12:59:37.319Z,37.70
2017-10-06T13:02:06.498Z,30.58
2017-10-06T13:04:35.764Z,28.81
2017-10-06T13:07:05.298Z,29.76
2017-10-06T13:09:35.011Z,31.53
2017-10-06T13:12:04.289Z,34.31
2017-10-06T13:14:34.026Z,35.22
2017-10-06T13:17:03.525Z,35.81
2017-10-06T13:19:33.251Z,39.16
2017-10-06T13:22:02.414Z,41.47
2017-10-06T13:24:31.954Z,46.62
2017-10-06T13:27:01.577Z,49.48
2017-10-06T13:29:31.205Z,55.97
2017-10-06T13:32:00.645Z,61.89
2017-10-06T13:34:30.607Z,64.22
2017-10-06T13:37:00.372Z,66.97
2017-10-06T13:39:30.135Z,67.30
2017-10-06T13:42:00.023Z,67.09
2017-10-06T13:44:29.753Z,66.13
2017-10-06T13:46:59.669Z,65.71
2017-10-06T13:49:29.545Z,64.06
2017-10-06T13:51:59.297Z,63.04
2017-10-06T13:54:29.950Z,61.84
2017-10-06T13:56:59.983Z,58.13
2017-10-06T13:59:29.783Z,57.42
2017-10-06T14:01:59.412Z,56.78
2017-10-06T14:04:28.930Z,51.34
2017-10-06T14:07:00.415Z,52.42
2017-10-06T14:09:30.184Z,54.50
2017-10-06T14:11:59.642Z,56.83
2017-10-06T14:14:29.100Z,56.89
2017-10-06T14:16:58.624Z,58.49
2017-10-06T14:19:28.172Z,61.26
2017-10-06T14:21:57.913Z,61.66
2017-10-06T14:24:27.383Z,62.64
2017-10-06T14:26:57.138Z,65.08
2017-10-06T14:29:26.957Z,65.11
2017-10-06T14:31:56.682Z,68.32
2017-10-06T14:34:26.618Z,70.74
2017-10-06T14:36:56.382Z,76.46
2017-10-06T14:39:26.131Z,76.47
2017-10-06T14:41:55.892Z,78.78
2017-10-06T14:44:25.646Z,79.34
2017-10-06T14:46:55.413Z,80.46
2017-10-06T14:49:25.146Z,76.30
2017-10-06T14:51:54.897Z,77.84
2017-10-06T14:54:24.637Z,77.45
2017-10-06T14:56:54.392Z,77.13
2017-10-06T14:59:24.129Z,78.07
2017-10-06T15:01:53.888Z,77.13
2017-10-06T15:04:23.658Z,76.04
2017-10-06T15:06:53.445Z,77.48
2017-10-06T15:09:23.193Z,77.33
2017-10-06T15:11:52.940Z,77.16
2017-10-06T15:14:22.708Z,77.06
2017-10-06T15:16:52.473Z,77.75
2017-10-06T15:19:22.354Z,78.47
2017-10-06T15:21:52.091Z,77.35
2017-10-06T15:24:23.454Z,78.95
2017-10-06T15:26:53.443Z,78.10
2017-10-06T15:29:23.227Z,79.63
2017-10-06T15:31:52.972Z,80.86
2017-10-06T15:34:22.716Z,82.92
2017-10-06T15:36:52.551Z,82.30
2017-10-06T15:39:22.333Z,81.87
2017-10-06T15:41:52.204Z,80.78
2017-10-06T15:44:21.974Z,81.19
2017-10-06T15:46:51.737Z,82.73
2017-10-06T15:49:21.559Z,82.34
2017-10-06T15:51:51.298Z,82.77
2017-10-06T15:54:20.905Z,83.68
2017-10-06T15:56:50.688Z,83.37
2017-10-06T15:59:20.545Z,84.30
2017-10-06T16:01:50.310Z,84.31
2017-10-06T16:04:20.038Z,85.03
2017-10-06T16:06:49.778Z,85.20
2017-10-06T16:09:21.394Z,85.56
2017-10-06T16:11:51.557Z,84.07
2017-10-06T16:14:23.676Z,85.18
2017-10-06T16:16:54.119Z,86.20
2017-10-06T16:19:23.893Z,87.08
2017-10-06T16:21:53.803Z,87.15
2017-10-06T16:24:23.700Z,87.02
2017-10-06T16:26:53.482Z,87.73
2017-10-06T16:29:23.253Z,88.53
2017-10-06T16:31:53.099Z,89.28
2017-10-06T16:34:22.982Z,90.15
2017-10-06T16:36:52.632Z,91.55
2017-10-06T16:39:22.463Z,91.95
2017-10-06T16:41:52.451Z,91.48
2017-10-06T16:44:22.330Z,91.79
2017-10-06T16:46:52.103Z,92.22
2017-10-06T16:49:21.892Z,92.50
2017-10-06T16:51:51.650Z,93.26
2017-10-06T16:54:21.386Z,93.50
2017-10-06T16:56:51.227Z,93.82
2017-10-06T16:59:21.019Z,94.20
2017-10-06T17:01:50.763Z,94.09
2017-10-06T17:04:20.728Z,94.02
2017-10-06T17:06:50.629Z,94.56
2017-10-06T17:09:20.479Z,94.63
2017-10-06T17:11:50.235Z,94.70
2017-10-06T17:14:19.796Z,95.08
2017-10-06T17:16:49.529Z,95.48
2017-10-06T17:19:19.112Z,95.91
2017-10-06T17:21:48.934Z,96.07
2017-10-06T17:24:18.494Z,96.26
2017-10-06T17:26:48.258Z,96.68
2017-10-06T17:29:18.007Z,96.73
2017-10-06T17:31:47.798Z,97.00
2017-10-06T17:34:17.367Z,97.16
2017-10-06T17:36:47.201Z,97.21
2017-10-06T17:39:16.948Z,97.57
2017-10-06T17:41:46.510Z,97.75
2017-10-06T17:44:16.117Z,97.73
2017-10-06T17:46:45.896Z,97.29
2017-10-06T17:49:15.894Z,96.83
2017-10-06T17:51:45.650Z,95.20
2017-10-06T17:54:19.017Z,94.90
2017-10-06T17:56:48.783Z,94.47
2017-10-06T17:59:18.507Z,94.11
2017-10-06T18:01:48.274Z,93.16
2017-10-06T18:04:18.018Z,92.51
2017-10-06T18:06:47.799Z,91.38
2017-10-06T18:09:17.897Z,91.40
2017-10-06T18:11:48.292Z,91.29
2017-10-06T18:14:18.062Z,91.48
2017-10-06T18:16:47.801Z,91.73
2017-10-06T18:19:17.603Z,91.53
2017-10-06T18:21:47.362Z,91.60
2017-10-06T18:24:18.234Z,90.80
2017-10-06T18:26:48.008Z,89.97
2017-10-06T18:29:17.608Z,90.35
2017-10-06T18:31:47.323Z,90.61
2017-10-06T18:34:17.091Z,89.45
2017-10-06T18:36:46.972Z,89.60
2017-10-06T18:39:16.568Z,88.68
2017-10-06T18:41:46.346Z,88.48
2017-10-06T18:44:16.483Z,87.58
2017-10-06T18:46:46.316Z,87.10
2017-10-06T18:49:15.853Z,86.80
2017-10-06T18:51:45.809Z,85.93
2017-10-06T18:54:15.577Z,86.01
2017-10-06T18:56:45.401Z,85.13
2017-10-06T18:59:15.202Z,85.74
2017-10-06T19:01:44.943Z,87.66
2017-10-06T19:04:14.718Z,85.95
2017-10-06T19:06:44.468Z,87.93
2017-10-06T19:09:14.226Z,87.73
2017-10-06T19:11:43.975Z,87.09
2017-10-06T19:14:13.714Z,87.06
2017-10-06T19:16:43.465Z,88.46
2017-10-06T19:19:13.840Z,88.36
2017-10-06T19:21:43.612Z,88.58
2017-10-06T19:24:13.398Z,88.42
2017-10-06T19:26:43.138Z,88.76
2017-10-06T19:29:12.882Z,90.28
2017-10-06T19:31:42.726Z,87.48
2017-10-06T19:34:12.455Z,87.21
2017-10-06T19:36:42.002Z,87.20
2017-10-06T19:39:11.416Z,86.23
2017-10-06T19:41:41.178Z,87.06
2017-10-06T19:44:10.886Z,87.32
2017-10-06T19:46:40.714Z,87.41
2017-10-06T19:49:10.470Z,87.06
2017-10-06T19:51:40.242Z,85.78
2017-10-06T19:54:09.996Z,85.43
2017-10-06T19:56:39.739Z,86.00
2017-10-06T19:59:09.502Z,87.02
2017-10-06T20:01:39.265Z,86.15
2017-10-06T20:04:09.743Z,87.52
2017-10-06T20:06:39.489Z,88.18
2017-10-06T20:09:09.214Z,88.76
2017-10-06T20:11:38.988Z,88.76
2017-10-06T20:14:09.259Z,89.84
2017-10-06T20:16:39.461Z,89.13
2017-10-06T20:19:09.203Z,90.66
2017-10-06T20:21:39.033Z,91.32
2017-10-06T20:24:10.229Z,91.81
2017-10-06T20:26:39.975Z,92.47
2017-10-06T20:29:09.747Z,91.50
2017-10-06T20:31:39.581Z,90.48
2017-10-06T20:34:09.816Z,92.14
2017-10-06T20:36:40.155Z,92.22
2017-10-06T20:39:10.182Z,92.95
2017-10-06T20:41:40.090Z,93.41
2017-10-06T20:44:09.984Z,92.91
2017-10-06T20:46:40.106Z,93.01
2017-10-06T20:49:10.029Z,92.69
2017-10-06T20:51:39.584Z,92.56
2017-10-06T20:54:09.876Z,92.82
2017-10-06T20:56:40.165Z,92.80
2017-10-06T20:59:11.026Z,92.98
2017-10-06T21:01:41.375Z,93.67
2017-10-06T21:04:11.573Z,93.53
2017-10-06T21:06:41.486Z,93.56
2017-10-06T21:09:12.567Z,94.34
2017-10-06T21:11:43.461Z,94.16
2017-10-06T21:14:14.370Z,94.18
2017-10-06T21:16:45.375Z,93.22
2017-10-06T21:19:15.504Z,93.02
2017-10-06T21:21:45.545Z,92.69
2017-10-06T21:24:16.313Z,92.42
2017-10-06T21:26:46.872Z,92.05
2017-10-06T21:29:17.373Z,91.94
2017-10-06T21:31:47.903Z,91.57
2017-10-06T21:34:17.682Z,91.65
2017-10-06T21:36:47.413Z,91.39
2017-10-06T21:39:17.154Z,91.21
2017-10-06T21:41:46.902Z,91.75
2017-10-06T21:44:16.645Z,91.92
2017-10-06T21:46:46.397Z,90.61
2017-10-06T21:49:16.154Z,90.77
2017-10-06T21:51:45.903Z,90.63
2017-10-06T21:54:15.647Z,90.30
2017-10-06T21:56:45.394Z,89.36
2017-10-06T21:59:15.810Z,89.82
2017-10-06T22:01:45.544Z,90.14
2017-10-06T22:04:15.277Z,90.82
2017-10-06T22:06:45.025Z,91.38
2017-10-06T22:09:14.755Z,92.60
2017-10-06T22:11:44.497Z,93.37
2017-10-06T22:14:14.230Z,94.06
2017-10-06T22:16:44.024Z,93.84
2017-10-06T22:19:13.779Z,94.08
2017-10-06T22:21:43.526Z,93.89
2017-10-06T22:24:13.074Z,94.68
2017-10-06T22:26:42.825Z,94.89
2017-10-06T22:29:12.665Z,95.22
2017-10-06T22:31:42.219Z,95.39
2017-10-06T22:34:11.953Z,95.00
2017-10-06T22:36:41.698Z,94.84
2017-10-06T22:39:11.449Z,95.10
2017-10-06T22:41:41.019Z,95.36
2017-10-06T22:44:11.612Z,95.58
2017-10-06T22:46:41.366Z,96.06
2017-10-06T22:49:11.092Z,95.65
2017-10-06T22:51:40.824Z,96.14
2017-10-06T22:54:10.570Z,96.67
2017-10-06T22:56:40.308Z,96.85
2017-10-06T22:59:10.062Z,96.75
2017-10-06T23:01:39.782Z,96.91
2017-10-06T23:04:09.594Z,97.06
2017-10-06T23:06:39.335Z,97.37
2017-10-06T23:09:09.699Z,97.44
2017-10-06T23:11:39.479Z,97.65
2017-10-06T23:14:09.216Z,97.63
2017-10-06T23:16:39.229Z,97.82
2017-10-06T23:19:08.948Z,97.77
2017-10-06T23:21:38.707Z,98.13
2017-10-06T23:24:08.457Z,98.66
2017-10-06T23:26:38.184Z,99.04
2017-10-06T23:29:07.917Z,99.31
2017-10-06T23:31:37.654Z,99.45
2017-10-06T23:34:07.392Z,99.70
2017-10-06T23:36:37.166Z,100.00
2017-10-06T23:39:06.939Z,100.00
2017-10-06T23:41:36.696Z,100.00
2017-10-06T23:44:06.452Z,100.00
2017-10-06T23:46:36.200Z,99.67
2017-10-06T23:49:05.924Z,98.95
2017-10-06T23:51:35.665Z,98.60
2017-10-06T23:54:05.423Z,98.79
2017-10-06T23:56:35.193Z,98.72
2017-10-06T23:59:04.936Z,98.74
